< < Back
Terminal Aerodrome Forecast


Current Version              Previous Versions:   1  2  3  4  5  6  7  8  9  

Terminal Aerodrome Forecast

960
FTUS42 KILM 242320
TAFILM
TAF
KILM 242320Z 2500/2524 07007KT P6SM SCT050
     FM250100 00000KT P6SM SKC
     FM251200 04005KT P6SM SCT250
     FM251800 10007KT P6SM SKC=

Latest METAR

995
SAUS70 KWBC 250756
MTRILM
METAR KILM 250753Z AUTO 02004KT 10SM BKN029 BKN039 BKN065 22/20 A3014
RMK AO2 SLP205 T02170200


USA.gov is the U.S. government's official web portal to all federal, state and local government web resources and services.